sensor_id;sensor_type;location;lat;lon;timestamp;P1;durP1;ratioP1;P2;durP2;ratioP2
65863;SDS011;52639;51.180;20.460;2023-09-30T00:01:27;33.67;;;18.13;;
65863;SDS011;52639;51.180;20.460;2023-09-30T00:05:30;34.22;;;18.17;;
65863;SDS011;52639;51.180;20.460;2023-09-30T00:09:33;35.28;;;18.88;;
65863;SDS011;52639;51.180;20.460;2023-09-30T00:13:38;35.35;;;18.10;;
65863;SDS011;52639;51.180;20.460;2023-09-30T00:17:41;36.47;;;19.65;;
65863;SDS011;52639;51.180;20.460;2023-09-30T00:21:44;40.80;;;20.73;;
65863;SDS011;52639;51.180;20.460;2023-09-30T00:25:47;37.05;;;19.90;;
65863;SDS011;52639;51.180;20.460;2023-09-30T00:29:52;38.13;;;19.17;;
65863;SDS011;52639;51.180;20.460;2023-09-30T00:33:55;40.53;;;19.98;;
65863;SDS011;52639;51.180;20.460;2023-09-30T00:37:58;31.52;;;18.58;;
65863;SDS011;52639;51.180;20.460;2023-09-30T00:42:01;33.88;;;18.70;;
65863;SDS011;52639;51.180;20.460;2023-09-30T00:46:14;34.42;;;18.25;;
65863;SDS011;52639;51.180;20.460;2023-09-30T00:50:24;32.67;;;18.08;;
65863;SDS011;52639;51.180;20.460;2023-09-30T00:54:29;29.55;;;18.08;;
65863;SDS011;52639;51.180;20.460;2023-09-30T00:58:33;33.10;;;17.45;;
65863;SDS011;52639;51.180;20.460;2023-09-30T01:02:39;32.67;;;17.65;;
65863;SDS011;52639;51.180;20.460;2023-09-30T01:06:43;32.05;;;18.35;;
65863;SDS011;52639;51.180;20.460;2023-09-30T01:10:46;34.47;;;18.88;;
65863;SDS011;52639;51.180;20.460;2023-09-30T01:14:49;31.15;;;17.60;;
65863;SDS011;52639;51.180;20.460;2023-09-30T01:18:54;36.13;;;17.92;;
65863;SDS011;52639;51.180;20.460;2023-09-30T01:22:58;37.22;;;18.90;;
65863;SDS011;52639;51.180;20.460;2023-09-30T01:27:04;34.65;;;18.75;;
65863;SDS011;52639;51.180;20.460;2023-09-30T01:31:07;31.30;;;18.00;;
65863;SDS011;52639;51.180;20.460;2023-09-30T01:35:10;28.65;;;16.38;;
65863;SDS011;52639;51.180;20.460;2023-09-30T01:39:15;27.63;;;16.75;;
65863;SDS011;52639;51.180;20.460;2023-09-30T01:43:18;28.35;;;17.38;;
65863;SDS011;52639;51.180;20.460;2023-09-30T01:47:21;28.63;;;16.92;;
65863;SDS011;52639;51.180;20.460;2023-09-30T01:51:24;30.13;;;17.83;;
65863;SDS011;52639;51.180;20.460;2023-09-30T01:55:30;28.08;;;15.98;;
65863;SDS011;52639;51.180;20.460;2023-09-30T01:59:42;27.75;;;16.60;;
65863;SDS011;52639;51.180;20.460;2023-09-30T02:03:45;26.60;;;16.35;;
65863;SDS011;52639;51.180;20.460;2023-09-30T02:07:48;28.30;;;15.80;;
65863;SDS011;52639;51.180;20.460;2023-09-30T02:11:57;29.40;;;15.55;;
65863;SDS011;52639;51.180;20.460;2023-09-30T02:16:00;25.90;;;15.80;;
65863;SDS011;52639;51.180;20.460;2023-09-30T02:20:03;27.38;;;16.80;;
65863;SDS011;52639;51.180;20.460;2023-09-30T02:24:09;22.55;;;15.02;;
65863;SDS011;52639;51.180;20.460;2023-09-30T02:28:13;25.02;;;15.13;;
65863;SDS011;52639;51.180;20.460;2023-09-30T02:32:16;30.63;;;15.68;;
65863;SDS011;52639;51.180;20.460;2023-09-30T02:36:19;24.08;;;16.27;;
65863;SDS011;52639;51.180;20.460;2023-09-30T02:40:23;25.17;;;15.90;;
65863;SDS011;52639;51.180;20.460;2023-09-30T02:44:37;23.92;;;15.82;;
65863;SDS011;52639;51.180;20.460;2023-09-30T02:48:40;25.55;;;15.90;;
65863;SDS011;52639;51.180;20.460;2023-09-30T02:52:50;21.85;;;14.63;;
65863;SDS011;52639;51.180;20.460;2023-09-30T02:56:53;22.08;;;14.88;;
65863;SDS011;52639;51.180;20.460;2023-09-30T03:01:11;29.98;;;15.75;;
65863;SDS011;52639;51.180;20.460;2023-09-30T03:05:17;20.60;;;14.30;;
65863;SDS011;52639;51.180;20.460;2023-09-30T03:09:43;24.48;;;14.98;;
65863;SDS011;52639;51.180;20.460;2023-09-30T03:18:20;20.70;;;14.25;;
65863;SDS011;52639;51.180;20.460;2023-09-30T03:22:27;72.13;;;48.58;;
65863;SDS011;52639;51.180;20.460;2023-09-30T03:26:30;82.38;;;50.30;;
65863;SDS011;52639;51.180;20.460;2023-09-30T03:30:33;89.55;;;53.63;;
65863;SDS011;52639;51.180;20.460;2023-09-30T03:34:37;75.53;;;47.55;;
65863;SDS011;52639;51.180;20.460;2023-09-30T03:38:45;101.68;;;59.65;;
65863;SDS011;52639;51.180;20.460;2023-09-30T03:42:49;65.32;;;40.65;;
65863;SDS011;52639;51.180;20.460;2023-09-30T03:46:52;38.80;;;22.60;;
65863;SDS011;52639;51.180;20.460;2023-09-30T03:50:56;28.45;;;17.05;;
65863;SDS011;52639;51.180;20.460;2023-09-30T03:54:59;29.40;;;18.60;;
65863;SDS011;52639;51.180;20.460;2023-09-30T03:59:05;24.90;;;16.42;;
65863;SDS011;52639;51.180;20.460;2023-09-30T04:03:20;21.63;;;14.15;;
65863;SDS011;52639;51.180;20.460;2023-09-30T04:07:25;29.55;;;20.45;;
65863;SDS011;52639;51.180;20.460;2023-09-30T04:11:28;83.68;;;52.53;;
65863;SDS011;52639;51.180;20.460;2023-09-30T04:15:31;48.85;;;29.33;;
65863;SDS011;52639;51.180;20.460;2023-09-30T04:19:36;23.85;;;16.33;;
65863;SDS011;52639;51.180;20.460;2023-09-30T04:23:40;41.80;;;28.25;;
65863;SDS011;52639;51.180;20.460;2023-09-30T04:27:44;28.33;;;20.35;;
65863;SDS011;52639;51.180;20.460;2023-09-30T04:31:48;28.38;;;18.90;;
65863;SDS011;52639;51.180;20.460;2023-09-30T04:35:58;29.95;;;19.77;;
65863;SDS011;52639;51.180;20.460;2023-09-30T04:40:03;26.50;;;16.17;;
65863;SDS011;52639;51.180;20.460;2023-09-30T04:44:10;22.98;;;15.07;;
65863;SDS011;52639;51.180;20.460;2023-09-30T04:48:13;25.08;;;15.07;;
65863;SDS011;52639;51.180;20.460;2023-09-30T04:52:25;24.95;;;16.13;;
65863;SDS011;52639;51.180;20.460;2023-09-30T05:00:57;23.35;;;15.52;;
65863;SDS011;52639;51.180;20.460;2023-09-30T05:05:00;27.85;;;16.23;;
65863;SDS011;52639;51.180;20.460;2023-09-30T05:09:07;28.83;;;18.45;;
65863;SDS011;52639;51.180;20.460;2023-09-30T05:13:34;33.13;;;17.30;;
65863;SDS011;52639;51.180;20.460;2023-09-30T05:17:37;39.13;;;22.02;;
65863;SDS011;52639;51.180;20.460;2023-09-30T05:21:49;25.23;;;18.73;;
65863;SDS011;52639;51.180;20.460;2023-09-30T05:25:52;30.70;;;18.55;;
65863;SDS011;52639;51.180;20.460;2023-09-30T05:30:20;26.10;;;18.25;;
65863;SDS011;52639;51.180;20.460;2023-09-30T05:34:23;25.08;;;18.23;;
65863;SDS011;52639;51.180;20.460;2023-09-30T05:38:30;25.42;;;17.83;;
65863;SDS011;52639;51.180;20.460;2023-09-30T05:46:48;23.58;;;16.02;;
65863;SDS011;52639;51.180;20.460;2023-09-30T05:50:51;22.95;;;16.35;;
65863;SDS011;52639;51.180;20.460;2023-09-30T05:54:55;24.58;;;16.80;;
65863;SDS011;52639;51.180;20.460;2023-09-30T05:58:58;25.27;;;16.40;;
65863;SDS011;52639;51.180;20.460;2023-09-30T06:03:03;26.73;;;15.48;;
65863;SDS011;52639;51.180;20.460;2023-09-30T06:07:09;24.73;;;15.63;;
65863;SDS011;52639;51.180;20.460;2023-09-30T06:11:16;24.23;;;16.90;;
65863;SDS011;52639;51.180;20.460;2023-09-30T06:15:20;22.73;;;15.40;;
65863;SDS011;52639;51.180;20.460;2023-09-30T06:19:28;30.90;;;16.77;;
65863;SDS011;52639;51.180;20.460;2023-09-30T06:23:31;31.95;;;20.08;;
65863;SDS011;52639;51.180;20.460;2023-09-30T06:27:34;25.40;;;17.20;;
65863;SDS011;52639;51.180;20.460;2023-09-30T06:31:38;27.40;;;17.08;;
65863;SDS011;52639;51.180;20.460;2023-09-30T06:35:42;24.85;;;16.65;;
65863;SDS011;52639;51.180;20.460;2023-09-30T06:39:51;22.23;;;15.48;;
65863;SDS011;52639;51.180;20.460;2023-09-30T06:43:54;25.20;;;16.35;;
65863;SDS011;52639;51.180;20.460;2023-09-30T06:47:57;22.52;;;14.10;;
65863;SDS011;52639;51.180;20.460;2023-09-30T06:52:02;25.15;;;14.93;;
65863;SDS011;52639;51.180;20.460;2023-09-30T06:56:05;20.90;;;14.68;;
65863;SDS011;52639;51.180;20.460;2023-09-30T07:00:13;23.88;;;15.55;;
65863;SDS011;52639;51.180;20.460;2023-09-30T07:04:17;19.15;;;13.98;;
65863;SDS011;52639;51.180;20.460;2023-09-30T07:13:03;16.85;;;12.48;;
65863;SDS011;52639;51.180;20.460;2023-09-30T07:17:07;17.98;;;14.05;;
65863;SDS011;52639;51.180;20.460;2023-09-30T07:21:11;18.85;;;14.02;;
65863;SDS011;52639;51.180;20.460;2023-09-30T07:25:17;21.08;;;15.38;;
65863;SDS011;52639;51.180;20.460;2023-09-30T07:42:29;18.27;;;14.90;;
65863;SDS011;52639;51.180;20.460;2023-09-30T07:46:35;18.85;;;14.13;;
65863;SDS011;52639;51.180;20.460;2023-09-30T07:50:39;21.75;;;14.30;;
65863;SDS011;52639;51.180;20.460;2023-09-30T07:54:44;20.67;;;14.75;;
65863;SDS011;52639;51.180;20.460;2023-09-30T07:58:50;20.00;;;15.63;;
65863;SDS011;52639;51.180;20.460;2023-09-30T08:02:58;22.30;;;14.23;;
65863;SDS011;52639;51.180;20.460;2023-09-30T08:07:09;20.33;;;15.57;;
65863;SDS011;52639;51.180;20.460;2023-09-30T08:11:22;18.58;;;13.13;;
65863;SDS011;52639;51.180;20.460;2023-09-30T08:15:46;17.83;;;12.88;;
65863;SDS011;52639;51.180;20.460;2023-09-30T08:20:01;16.00;;;11.23;;
65863;SDS011;52639;51.180;20.460;2023-09-30T08:24:08;17.02;;;10.93;;
65863;SDS011;52639;51.180;20.460;2023-09-30T08:28:29;18.02;;;11.48;;
65863;SDS011;52639;51.180;20.460;2023-09-30T08:32:45;19.33;;;13.02;;
65863;SDS011;52639;51.180;20.460;2023-09-30T08:36:48;15.57;;;12.80;;
65863;SDS011;52639;51.180;20.460;2023-09-30T08:45:15;20.23;;;15.18;;
65863;SDS011;52639;51.180;20.460;2023-09-30T08:49:23;23.88;;;15.80;;
65863;SDS011;52639;51.180;20.460;2023-09-30T08:53:29;22.30;;;16.73;;
65863;SDS011;52639;51.180;20.460;2023-09-30T08:57:41;27.10;;;17.98;;
65863;SDS011;52639;51.180;20.460;2023-09-30T09:01:45;27.27;;;17.58;;
65863;SDS011;52639;51.180;20.460;2023-09-30T09:05:57;24.80;;;17.67;;
65863;SDS011;52639;51.180;20.460;2023-09-30T09:10:06;26.90;;;18.48;;
65863;SDS011;52639;51.180;20.460;2023-09-30T09:19:12;25.38;;;17.73;;
65863;SDS011;52639;51.180;20.460;2023-09-30T09:23:19;23.80;;;17.75;;
65863;SDS011;52639;51.180;20.460;2023-09-30T09:27:34;24.85;;;19.35;;
65863;SDS011;52639;51.180;20.460;2023-09-30T09:31:39;24.17;;;17.92;;
65863;SDS011;52639;51.180;20.460;2023-09-30T09:35:59;28.30;;;19.05;;
65863;SDS011;52639;51.180;20.460;2023-09-30T09:44:32;30.17;;;20.40;;
65863;SDS011;52639;51.180;20.460;2023-09-30T09:48:55;29.13;;;21.15;;
65863;SDS011;52639;51.180;20.460;2023-09-30T09:53:24;26.83;;;19.85;;
65863;SDS011;52639;51.180;20.460;2023-09-30T10:02:04;31.17;;;22.08;;
65863;SDS011;52639;51.180;20.460;2023-09-30T10:06:16;34.70;;;21.98;;
65863;SDS011;52639;51.180;20.460;2023-09-30T10:10:24;31.27;;;23.05;;
65863;SDS011;52639;51.180;20.460;2023-09-30T10:19:13;29.27;;;21.65;;
65863;SDS011;52639;51.180;20.460;2023-09-30T10:23:38;29.58;;;19.60;;
65863;SDS011;52639;51.180;20.460;2023-09-30T10:27:47;32.17;;;19.08;;
65863;SDS011;52639;51.180;20.460;2023-09-30T10:32:07;26.42;;;16.30;;
65863;SDS011;52639;51.180;20.460;2023-09-30T10:36:46;30.43;;;17.73;;
65863;SDS011;52639;51.180;20.460;2023-09-30T10:40:51;24.27;;;15.55;;
65863;SDS011;52639;51.180;20.460;2023-09-30T10:49:46;26.85;;;14.82;;
65863;SDS011;52639;51.180;20.460;2023-09-30T10:53:49;22.58;;;14.38;;
65863;SDS011;52639;51.180;20.460;2023-09-30T10:57:53;22.35;;;13.50;;
65863;SDS011;52639;51.180;20.460;2023-09-30T11:01:57;22.55;;;12.38;;
65863;SDS011;52639;51.180;20.460;2023-09-30T11:06:02;19.40;;;12.23;;
65863;SDS011;52639;51.180;20.460;2023-09-30T11:10:06;23.80;;;12.93;;
65863;SDS011;52639;51.180;20.460;2023-09-30T11:14:22;22.33;;;11.55;;
65863;SDS011;52639;51.180;20.460;2023-09-30T11:18:29;19.80;;;12.18;;
65863;SDS011;52639;51.180;20.460;2023-09-30T11:22:35;20.52;;;11.55;;
65863;SDS011;52639;51.180;20.460;2023-09-30T11:26:55;18.27;;;11.20;;
65863;SDS011;52639;51.180;20.460;2023-09-30T11:30:59;20.48;;;11.32;;
65863;SDS011;52639;51.180;20.460;2023-09-30T11:35:03;20.20;;;11.05;;
65863;SDS011;52639;51.180;20.460;2023-09-30T11:39:20;18.90;;;11.13;;
65863;SDS011;52639;51.180;20.460;2023-09-30T11:43:25;19.25;;;10.40;;
65863;SDS011;52639;51.180;20.460;2023-09-30T11:47:28;17.70;;;9.55;;
65863;SDS011;52639;51.180;20.460;2023-09-30T11:51:42;15.63;;;9.00;;
65863;SDS011;52639;51.180;20.460;2023-09-30T11:55:59;14.85;;;7.97;;
65863;SDS011;52639;51.180;20.460;2023-09-30T12:00:04;14.10;;;7.20;;
65863;SDS011;52639;51.180;20.460;2023-09-30T12:04:15;11.13;;;6.53;;
65863;SDS011;52639;51.180;20.460;2023-09-30T12:08:20;13.02;;;6.50;;
65863;SDS011;52639;51.180;20.460;2023-09-30T12:12:28;12.18;;;6.38;;
65863;SDS011;52639;51.180;20.460;2023-09-30T12:16:33;11.93;;;5.50;;
65863;SDS011;52639;51.180;20.460;2023-09-30T12:20:36;11.60;;;5.00;;
65863;SDS011;52639;51.180;20.460;2023-09-30T12:24:49;12.63;;;5.57;;
65863;SDS011;52639;51.180;20.460;2023-09-30T12:28:55;11.07;;;5.05;;
65863;SDS011;52639;51.180;20.460;2023-09-30T12:32:58;6.95;;;3.75;;
65863;SDS011;52639;51.180;20.460;2023-09-30T12:37:02;6.68;;;3.05;;
65863;SDS011;52639;51.180;20.460;2023-09-30T12:41:05;4.65;;;2.63;;
65863;SDS011;52639;51.180;20.460;2023-09-30T12:45:11;7.93;;;3.08;;
65863;SDS011;52639;51.180;20.460;2023-09-30T12:49:14;9.25;;;3.25;;
65863;SDS011;52639;51.180;20.460;2023-09-30T12:53:18;8.25;;;3.28;;
65863;SDS011;52639;51.180;20.460;2023-09-30T12:57:21;7.65;;;2.92;;
65863;SDS011;52639;51.180;20.460;2023-09-30T13:01:27;5.93;;;3.00;;
65863;SDS011;52639;51.180;20.460;2023-09-30T13:05:33;7.90;;;3.47;;
65863;SDS011;52639;51.180;20.460;2023-09-30T13:09:48;9.82;;;3.30;;
65863;SDS011;52639;51.180;20.460;2023-09-30T13:14:07;7.80;;;2.78;;
65863;SDS011;52639;51.180;20.460;2023-09-30T13:18:18;9.25;;;3.60;;
65863;SDS011;52639;51.180;20.460;2023-09-30T13:22:25;5.40;;;2.42;;
65863;SDS011;52639;51.180;20.460;2023-09-30T13:26:32;6.57;;;2.20;;
65863;SDS011;52639;51.180;20.460;2023-09-30T13:30:35;7.07;;;2.50;;
65863;SDS011;52639;51.180;20.460;2023-09-30T13:34:40;5.18;;;2.42;;
65863;SDS011;52639;51.180;20.460;2023-09-30T13:38:43;7.05;;;2.60;;
65863;SDS011;52639;51.180;20.460;2023-09-30T13:42:47;5.32;;;2.60;;
65863;SDS011;52639;51.180;20.460;2023-09-30T13:46:50;9.20;;;2.90;;
65863;SDS011;52639;51.180;20.460;2023-09-30T13:50:56;6.93;;;2.50;;
65863;SDS011;52639;51.180;20.460;2023-09-30T13:55:12;5.55;;;2.47;;
65863;SDS011;52639;51.180;20.460;2023-09-30T13:59:19;5.90;;;2.33;;
65863;SDS011;52639;51.180;20.460;2023-09-30T14:03:22;9.45;;;2.55;;
65863;SDS011;52639;51.180;20.460;2023-09-30T14:07:28;6.85;;;2.35;;
65863;SDS011;52639;51.180;20.460;2023-09-30T14:11:35;5.35;;;2.38;;
65863;SDS011;52639;51.180;20.460;2023-09-30T14:15:38;6.13;;;2.30;;
65863;SDS011;52639;51.180;20.460;2023-09-30T14:19:41;6.68;;;2.53;;
65863;SDS011;52639;51.180;20.460;2023-09-30T14:23:49;6.03;;;2.22;;
65863;SDS011;52639;51.180;20.460;2023-09-30T14:27:52;6.00;;;2.45;;
65863;SDS011;52639;51.180;20.460;2023-09-30T14:31:55;10.80;;;2.22;;
65863;SDS011;52639;51.180;20.460;2023-09-30T14:35:59;8.73;;;2.65;;
65863;SDS011;52639;51.180;20.460;2023-09-30T14:40:26;8.60;;;2.53;;
65863;SDS011;52639;51.180;20.460;2023-09-30T14:44:32;8.73;;;2.40;;
65863;SDS011;52639;51.180;20.460;2023-09-30T14:48:38;6.47;;;2.80;;
65863;SDS011;52639;51.180;20.460;2023-09-30T14:57:07;7.18;;;2.53;;
65863;SDS011;52639;51.180;20.460;2023-09-30T15:01:15;8.40;;;2.55;;
65863;SDS011;52639;51.180;20.460;2023-09-30T15:05:21;5.80;;;2.30;;
65863;SDS011;52639;51.180;20.460;2023-09-30T15:09:28;11.63;;;3.20;;
65863;SDS011;52639;51.180;20.460;2023-09-30T15:13:33;9.98;;;3.08;;
65863;SDS011;52639;51.180;20.460;2023-09-30T15:17:36;10.90;;;3.47;;
65863;SDS011;52639;51.180;20.460;2023-09-30T15:21:40;11.38;;;2.58;;
65863;SDS011;52639;51.180;20.460;2023-09-30T15:25:44;7.82;;;2.90;;
65863;SDS011;52639;51.180;20.460;2023-09-30T15:29:48;9.52;;;2.90;;
65863;SDS011;52639;51.180;20.460;2023-09-30T15:33:52;10.98;;;3.08;;
65863;SDS011;52639;51.180;20.460;2023-09-30T15:37:55;9.50;;;3.00;;
65863;SDS011;52639;51.180;20.460;2023-09-30T15:41:58;11.93;;;2.92;;
65863;SDS011;52639;51.180;20.460;2023-09-30T15:46:03;7.13;;;2.63;;
65863;SDS011;52639;51.180;20.460;2023-09-30T15:50:06;8.40;;;3.00;;
65863;SDS011;52639;51.180;20.460;2023-09-30T15:54:10;6.97;;;3.03;;
65863;SDS011;52639;51.180;20.460;2023-09-30T15:58:13;8.02;;;2.97;;
65863;SDS011;52639;51.180;20.460;2023-09-30T16:02:19;7.95;;;2.60;;
65863;SDS011;52639;51.180;20.460;2023-09-30T16:06:31;7.88;;;2.88;;
65863;SDS011;52639;51.180;20.460;2023-09-30T16:10:34;7.55;;;3.22;;
65863;SDS011;52639;51.180;20.460;2023-09-30T16:14:38;11.85;;;3.47;;
65863;SDS011;52639;51.180;20.460;2023-09-30T16:23:18;8.20;;;3.15;;
65863;SDS011;52639;51.180;20.460;2023-09-30T16:27:39;12.65;;;3.50;;
65863;SDS011;52639;51.180;20.460;2023-09-30T16:31:42;13.15;;;5.03;;
65863;SDS011;52639;51.180;20.460;2023-09-30T16:35:46;15.05;;;6.68;;
65863;SDS011;52639;51.180;20.460;2023-09-30T16:39:53;12.50;;;5.07;;
65863;SDS011;52639;51.180;20.460;2023-09-30T16:43:56;15.55;;;5.13;;
65863;SDS011;52639;51.180;20.460;2023-09-30T16:48:00;12.25;;;6.30;;
65863;SDS011;52639;51.180;20.460;2023-09-30T16:52:06;17.08;;;6.80;;
65863;SDS011;52639;51.180;20.460;2023-09-30T16:56:09;26.80;;;8.55;;
65863;SDS011;52639;51.180;20.460;2023-09-30T17:00:14;24.58;;;8.20;;
65863;SDS011;52639;51.180;20.460;2023-09-30T17:04:29;23.25;;;8.27;;
65863;SDS011;52639;51.180;20.460;2023-09-30T17:08:34;19.45;;;6.78;;
65863;SDS011;52639;51.180;20.460;2023-09-30T17:12:38;26.17;;;8.32;;
65863;SDS011;52639;51.180;20.460;2023-09-30T17:16:42;32.00;;;10.85;;
65863;SDS011;52639;51.180;20.460;2023-09-30T17:20:45;27.30;;;10.35;;
65863;SDS011;52639;51.180;20.460;2023-09-30T17:24:52;31.77;;;10.55;;
65863;SDS011;52639;51.180;20.460;2023-09-30T17:28:55;24.52;;;9.63;;
65863;SDS011;52639;51.180;20.460;2023-09-30T17:32:59;30.48;;;10.15;;
65863;SDS011;52639;51.180;20.460;2023-09-30T17:37:02;27.55;;;9.73;;
65863;SDS011;52639;51.180;20.460;2023-09-30T17:41:26;27.25;;;9.77;;
65863;SDS011;52639;51.180;20.460;2023-09-30T17:45:37;27.27;;;9.70;;
65863;SDS011;52639;51.180;20.460;2023-09-30T17:50:02;24.15;;;9.90;;
65863;SDS011;52639;51.180;20.460;2023-09-30T17:54:20;28.67;;;10.20;;
65863;SDS011;52639;51.180;20.460;2023-09-30T17:58:26;23.88;;;8.77;;
65863;SDS011;52639;51.180;20.460;2023-09-30T18:02:30;19.08;;;8.68;;
65863;SDS011;52639;51.180;20.460;2023-09-30T18:06:42;24.45;;;9.00;;
65863;SDS011;52639;51.180;20.460;2023-09-30T18:15:46;19.10;;;8.70;;
65863;SDS011;52639;51.180;20.460;2023-09-30T18:19:51;16.52;;;9.10;;
65863;SDS011;52639;51.180;20.460;2023-09-30T18:24:00;22.83;;;9.02;;
65863;SDS011;52639;51.180;20.460;2023-09-30T18:28:07;28.08;;;9.93;;
65863;SDS011;52639;51.180;20.460;2023-09-30T18:32:14;16.25;;;8.38;;
65863;SDS011;52639;51.180;20.460;2023-09-30T18:36:24;17.60;;;9.00;;
65863;SDS011;52639;51.180;20.460;2023-09-30T18:40:29;19.85;;;8.65;;
65863;SDS011;52639;51.180;20.460;2023-09-30T18:44:38;15.27;;;7.32;;
65863;SDS011;52639;51.180;20.460;2023-09-30T18:48:58;16.08;;;7.15;;
65863;SDS011;52639;51.180;20.460;2023-09-30T18:53:06;19.30;;;6.88;;
65863;SDS011;52639;51.180;20.460;2023-09-30T18:57:10;17.75;;;7.45;;
65863;SDS011;52639;51.180;20.460;2023-09-30T19:01:14;17.75;;;8.35;;
65863;SDS011;52639;51.180;20.460;2023-09-30T19:05:20;25.15;;;8.68;;
65863;SDS011;52639;51.180;20.460;2023-09-30T19:09:24;19.95;;;8.38;;
65863;SDS011;52639;51.180;20.460;2023-09-30T19:13:28;24.27;;;9.15;;
65863;SDS011;52639;51.180;20.460;2023-09-30T19:17:32;31.45;;;9.73;;
65863;SDS011;52639;51.180;20.460;2023-09-30T19:22:23;24.13;;;8.77;;
65863;SDS011;52639;51.180;20.460;2023-09-30T19:26:28;23.90;;;9.35;;
65863;SDS011;52639;51.180;20.460;2023-09-30T19:30:32;20.65;;;8.40;;
65863;SDS011;52639;51.180;20.460;2023-09-30T19:34:37;27.20;;;10.30;;
65863;SDS011;52639;51.180;20.460;2023-09-30T19:38:43;18.80;;;8.90;;
65863;SDS011;52639;51.180;20.460;2023-09-30T19:42:49;25.35;;;11.43;;
65863;SDS011;52639;51.180;20.460;2023-09-30T19:46:53;31.17;;;13.55;;
65863;SDS011;52639;51.180;20.460;2023-09-30T19:50:59;17.30;;;7.38;;
65863;SDS011;52639;51.180;20.460;2023-09-30T19:55:05;21.95;;;6.97;;
65863;SDS011;52639;51.180;20.460;2023-09-30T19:59:09;20.38;;;7.97;;
65863;SDS011;52639;51.180;20.460;2023-09-30T20:03:13;23.45;;;9.50;;
65863;SDS011;52639;51.180;20.460;2023-09-30T20:07:17;26.35;;;10.60;;
65863;SDS011;52639;51.180;20.460;2023-09-30T20:11:26;39.72;;;14.73;;
65863;SDS011;52639;51.180;20.460;2023-09-30T20:15:30;35.47;;;11.68;;
65863;SDS011;52639;51.180;20.460;2023-09-30T20:19:33;35.55;;;13.02;;
65863;SDS011;52639;51.180;20.460;2023-09-30T20:23:51;27.55;;;9.07;;
65863;SDS011;52639;51.180;20.460;2023-09-30T20:38:19;19.30;;;7.95;;
65863;SDS011;52639;51.180;20.460;2023-09-30T20:42:38;19.63;;;7.57;;
65863;SDS011;52639;51.180;20.460;2023-09-30T20:47:08;19.77;;;7.55;;
65863;SDS011;52639;51.180;20.460;2023-09-30T20:51:13;17.83;;;7.30;;
65863;SDS011;52639;51.180;20.460;2023-09-30T20:55:16;18.80;;;8.70;;
65863;SDS011;52639;51.180;20.460;2023-09-30T21:04:29;24.67;;;7.88;;
65863;SDS011;52639;51.180;20.460;2023-09-30T21:13:40;25.85;;;7.70;;
65863;SDS011;52639;51.180;20.460;2023-09-30T21:27:38;22.15;;;7.95;;
65863;SDS011;52639;51.180;20.460;2023-09-30T21:31:51;19.45;;;7.72;;
65863;SDS011;52639;51.180;20.460;2023-09-30T21:36:12;17.88;;;6.80;;
65863;SDS011;52639;51.180;20.460;2023-09-30T21:45:30;24.42;;;8.10;;
65863;SDS011;52639;51.180;20.460;2023-09-30T22:10:59;20.83;;;9.03;;
65863;SDS011;52639;51.180;20.460;2023-09-30T22:20:10;21.52;;;8.50;;
65863;SDS011;52639;51.180;20.460;2023-09-30T22:24:13;22.80;;;8.52;;
65863;SDS011;52639;51.180;20.460;2023-09-30T22:28:19;20.02;;;8.77;;
65863;SDS011;52639;51.180;20.460;2023-09-30T22:32:22;23.52;;;9.30;;
65863;SDS011;52639;51.180;20.460;2023-09-30T22:40:39;20.55;;;7.97;;
65863;SDS011;52639;51.180;20.460;2023-09-30T22:45:16;17.20;;;7.70;;
65863;SDS011;52639;51.180;20.460;2023-09-30T22:49:20;18.92;;;7.93;;
65863;SDS011;52639;51.180;20.460;2023-09-30T22:53:24;15.90;;;7.97;;
65863;SDS011;52639;51.180;20.460;2023-09-30T22:57:42;20.45;;;8.35;;
65863;SDS011;52639;51.180;20.460;2023-09-30T23:01:47;26.75;;;10.05;;
65863;SDS011;52639;51.180;20.460;2023-09-30T23:05:50;17.30;;;7.68;;
65863;SDS011;52639;51.180;20.460;2023-09-30T23:09:55;17.00;;;7.57;;
65863;SDS011;52639;51.180;20.460;2023-09-30T23:13:59;18.90;;;8.95;;
65863;SDS011;52639;51.180;20.460;2023-09-30T23:18:05;16.77;;;7.90;;
65863;SDS011;52639;51.180;20.460;2023-09-30T23:22:25;25.03;;;9.17;;
65863;SDS011;52639;51.180;20.460;2023-09-30T23:26:29;22.77;;;9.13;;
65863;SDS011;52639;51.180;20.460;2023-09-30T23:30:34;20.13;;;9.70;;
65863;SDS011;52639;51.180;20.460;2023-09-30T23:34:39;22.20;;;9.07;;
65863;SDS011;52639;51.180;20.460;2023-09-30T23:38:47;24.88;;;9.25;;
65863;SDS011;52639;51.180;20.460;2023-09-30T23:42:51;15.80;;;7.32;;
65863;SDS011;52639;51.180;20.460;2023-09-30T23:46:54;22.42;;;7.60;;
65863;SDS011;52639;51.180;20.460;2023-09-30T23:50:59;19.02;;;6.70;;
65863;SDS011;52639;51.180;20.460;2023-09-30T23:55:05;23.17;;;8.90;;
65863;SDS011;52639;51.180;20.460;2023-09-30T23:59:26;18.88;;;8.60;;
